createdAt,value
2023-01-11T00:00:24.601Z,1.83
2023-01-11T00:03:26.444Z,1.17
2023-01-11T00:06:28.868Z,0.60
2023-01-11T00:09:30.717Z,0.87
2023-01-11T00:12:33.076Z,1.87
2023-01-11T00:15:36.832Z,1.43
2023-01-11T00:18:40.122Z,0.57
2023-01-11T00:21:42.043Z,2.27
2023-01-11T00:24:43.953Z,2.60
2023-01-11T00:27:47.595Z,3.20
2023-01-11T00:30:50.381Z,2.57
2023-01-11T00:33:52.306Z,1.03
2023-01-11T00:36:54.806Z,1.67
2023-01-11T00:39:56.759Z,1.03
2023-01-11T00:43:17.152Z,1.00
2023-01-11T00:46:37.829Z,1.73
2023-01-11T00:49:39.871Z,1.07
2023-01-11T00:52:41.730Z,1.33
2023-01-11T00:55:44.151Z,2.30
2023-01-11T00:58:46.113Z,2.33
2023-01-11T01:01:48.405Z,0.57
2023-01-11T01:04:50.248Z,0.30
2023-01-11T01:07:52.205Z,0.40
2023-01-11T01:10:54.064Z,0.97
2023-01-11T01:14:14.767Z,1.13
2023-01-11T01:17:16.977Z,2.87
2023-01-11T01:20:21.241Z,1.90
2023-01-11T01:23:23.128Z,2.63
2023-01-11T01:26:25.295Z,2.63
2023-01-11T01:29:27.387Z,2.60
2023-01-11T01:32:29.300Z,0.60
2023-01-11T01:35:31.179Z,1.00
2023-01-11T01:38:33.149Z,1.10
2023-01-11T01:41:35.760Z,0.70
2023-01-11T01:44:54.682Z,3.97
2023-01-11T01:48:02.150Z,1.60
2023-01-11T01:51:06.959Z,1.33
2023-01-11T01:54:13.581Z,0.90
2023-01-11T01:57:22.498Z,0.50
2023-01-11T02:00:24.527Z,2.17
2023-01-11T02:03:27.189Z,0.63
2023-01-11T02:06:29.227Z,1.33
2023-01-11T02:09:36.093Z,0.77
2023-01-11T02:12:44.072Z,1.53
2023-01-11T02:15:46.156Z,1.90
2023-01-11T02:18:48.671Z,0.80
2023-01-11T02:21:59.688Z,1.50
2023-01-11T02:25:03.548Z,0.63
2023-01-11T02:28:37.874Z,1.33
2023-01-11T02:31:54.131Z,0.63
2023-01-11T02:35:24.770Z,1.10
2023-01-11T02:38:39.908Z,0.33
2023-01-11T02:42:20.493Z,0.20
2023-01-11T02:45:31.073Z,0.43
2023-01-11T02:49:02.742Z,1.00
2023-01-11T02:52:17.629Z,3.80
2023-01-11T02:55:24.993Z,0.57
2023-01-11T02:58:30.374Z,1.23
2023-01-11T03:01:32.388Z,0.73
2023-01-11T03:04:38.172Z,0.93
2023-01-11T03:07:56.592Z,0.83
2023-01-11T03:11:04.763Z,1.07
2023-01-11T03:14:13.165Z,0.47
2023-01-11T03:17:36.355Z,0.40
2023-01-11T03:20:42.488Z,0.47
2023-01-11T03:24:07.508Z,0.77
2023-01-11T03:27:31.529Z,0.20
2023-01-11T03:31:01.557Z,0.30
2023-01-11T03:34:18.773Z,0.80
2023-01-11T03:37:26.402Z,1.63
2023-01-11T03:40:32.126Z,0.50
2023-01-11T03:43:36.825Z,0.80
2023-01-11T03:46:45.043Z,0.77
2023-01-11T03:49:52.283Z,0.30
2023-01-11T03:52:56.143Z,1.17
2023-01-11T03:55:59.420Z,0.50
2023-01-11T03:59:01.846Z,0.70
2023-01-11T04:02:03.789Z,2.40
2023-01-11T04:05:07.324Z,0.40
2023-01-11T04:08:09.487Z,2.20
2023-01-11T04:11:11.736Z,1.57
2023-01-11T04:14:13.693Z,0.90
2023-01-11T04:17:16.212Z,0.37
2023-01-11T04:20:18.290Z,0.53
2023-01-11T04:23:20.421Z,0.47
2023-01-11T04:26:22.375Z,0.63
2023-01-11T04:29:25.069Z,1.90
2023-01-11T04:32:27.186Z,0.60
2023-01-11T04:35:29.980Z,0.63
2023-01-11T04:38:31.854Z,0.73
2023-01-11T04:41:52.569Z,0.43
2023-01-11T04:44:54.529Z,3.70
2023-01-11T04:47:57.988Z,1.63
2023-01-11T04:50:59.915Z,1.33
2023-01-11T04:54:01.891Z,1.33
2023-01-11T04:57:03.918Z,1.83
2023-01-11T05:00:11.119Z,0.40
2023-01-11T05:03:14.281Z,0.80
2023-01-11T05:06:16.367Z,0.90
2023-01-11T05:09:19.655Z,3.00
2023-01-11T05:12:21.589Z,1.00
2023-01-11T05:15:23.549Z,4.10
2023-01-11T05:18:25.455Z,0.90
2023-01-11T05:21:36.332Z,0.50
2023-01-11T05:24:38.298Z,1.50
2023-01-11T05:27:40.118Z,0.83
2023-01-11T05:30:42.145Z,2.67
2023-01-11T05:33:44.708Z,1.17
2023-01-11T05:36:46.751Z,6.17
2023-01-11T05:39:49.003Z,5.03
2023-01-11T05:42:50.935Z,5.17
2023-01-11T05:45:54.123Z,2.30
2023-01-11T05:48:56.386Z,1.13
2023-01-11T05:51:58.293Z,3.27
2023-01-11T05:55:00.312Z,0.93
2023-01-11T05:58:02.293Z,3.80
2023-01-11T06:01:05.107Z,0.80
2023-01-11T06:04:08.743Z,3.33
2023-01-11T06:07:11.079Z,2.97
2023-01-11T06:10:12.944Z,3.57
2023-01-11T06:13:27.145Z,5.77
2023-01-11T06:16:29.133Z,0.63
2023-01-11T06:19:31.137Z,0.80
2023-01-11T06:22:33.209Z,1.87
2023-01-11T06:25:38.071Z,1.73
2023-01-11T06:28:40.171Z,2.73
2023-01-11T06:31:42.685Z,2.10
2023-01-11T06:34:45.024Z,1.70
2023-01-11T06:37:47.265Z,2.13
2023-01-11T06:41:08.692Z,4.37
2023-01-11T06:44:11.481Z,1.60
2023-01-11T06:47:13.422Z,2.10
2023-01-11T06:50:16.531Z,0.90
2023-01-11T06:53:18.607Z,3.47
2023-01-11T06:56:20.533Z,1.90
2023-01-11T06:59:22.428Z,1.00
2023-01-11T07:02:24.568Z,1.77
2023-01-11T07:05:26.530Z,1.93
2023-01-11T07:08:28.959Z,1.67
2023-01-11T07:11:32.554Z,1.33
2023-01-11T07:14:35.132Z,1.47
2023-01-11T07:17:37.044Z,1.53
2023-01-11T07:20:39.036Z,1.13
2023-01-11T07:23:40.922Z,1.07
2023-01-11T07:26:43.604Z,9.43
2023-01-11T07:29:45.674Z,4.90
2023-01-11T07:32:47.635Z,3.17
2023-01-11T07:35:49.953Z,2.00
2023-01-11T07:38:52.393Z,4.70
2023-01-11T07:42:14.660Z,9.97
2023-01-11T07:45:17.379Z,5.10
2023-01-11T07:48:25.456Z,4.83
2023-01-11T07:51:27.612Z,3.30
2023-01-11T07:54:29.580Z,9.33
2023-01-11T07:57:32.014Z,3.57
2023-01-11T08:00:34.934Z,2.20
2023-01-11T08:03:37.085Z,1.33
2023-01-11T08:06:39.569Z,3.10
2023-01-11T08:09:41.501Z,1.73
2023-01-11T08:13:07.024Z,1.60
2023-01-11T08:16:09.110Z,1.13
2023-01-11T08:19:11.757Z,1.07
2023-01-11T08:22:13.844Z,1.33
2023-01-11T08:25:16.126Z,2.13
2023-01-11T08:28:18.023Z,1.77
2023-01-11T08:31:20.198Z,3.53
2023-01-11T08:34:23.025Z,3.90
2023-01-11T08:37:24.884Z,1.67
2023-01-11T08:40:26.765Z,2.70
2023-01-11T08:43:31.862Z,1.20
2023-01-11T08:46:34.664Z,1.33
2023-01-11T08:49:36.549Z,1.63
2023-01-11T08:52:38.956Z,1.80
2023-01-11T08:55:43.718Z,1.30
2023-01-11T08:58:45.724Z,2.20
2023-01-11T09:01:48.272Z,1.30
2023-01-11T09:04:50.241Z,1.10
2023-01-11T09:07:55.025Z,0.43
2023-01-11T09:11:00.078Z,0.80
2023-01-11T09:14:01.986Z,1.80
2023-01-11T09:17:04.045Z,1.40
2023-01-11T09:20:07.001Z,2.10
2023-01-11T09:23:08.916Z,2.63
2023-01-11T09:26:12.692Z,2.00
2023-01-11T09:29:14.693Z,1.50
2023-01-11T09:32:16.589Z,1.63
2023-01-11T09:35:19.624Z,2.03
2023-01-11T09:38:22.009Z,2.50
2023-01-11T09:42:04.849Z,1.43
2023-01-11T09:45:14.639Z,3.13
2023-01-11T09:48:29.182Z,1.57
2023-01-11T09:51:35.962Z,4.00
2023-01-11T09:54:37.994Z,2.23
2023-01-11T09:57:58.525Z,6.73
2023-01-11T10:01:18.565Z,2.90
2023-01-11T10:04:37.694Z,2.77
2023-01-11T10:18:33.078Z,1.20
2023-01-11T10:19:35.036Z,1.00
2023-01-11T10:22:35.668Z,2.27
2023-01-11T10:25:48.256Z,2.10
2023-01-11T10:29:22.598Z,2.23
2023-01-11T10:33:10.546Z,2.53
2023-01-11T10:36:18.847Z,3.43
2023-01-11T10:40:03.129Z,2.13
2023-01-11T10:43:13.213Z,2.07
2023-01-11T10:46:20.766Z,2.20
2023-01-11T10:50:05.961Z,0.87
2023-01-11T10:53:20.805Z,1.60
2023-01-11T10:56:42.517Z,1.37
2023-01-11T10:59:56.819Z,2.33
2023-01-11T11:03:10.972Z,2.40
2023-01-11T11:06:15.687Z,3.50
2023-01-11T11:09:23.385Z,1.73
2023-01-11T11:12:33.725Z,1.17
2023-01-11T11:15:57.195Z,1.27
2023-01-11T11:18:59.575Z,1.70
2023-01-11T11:22:01.550Z,1.40
2023-01-11T11:25:12.301Z,4.47
2023-01-11T11:28:23.403Z,1.70
2023-01-11T11:31:25.287Z,2.20
2023-01-11T11:34:28.219Z,2.83
2023-01-11T11:37:35.361Z,1.53
2023-01-11T11:40:39.019Z,1.50
2023-01-11T11:43:48.214Z,1.17
2023-01-11T11:47:03.015Z,0.73
2023-01-11T11:50:43.009Z,0.70
2023-01-11T11:53:53.603Z,1.13
2023-01-11T11:56:56.868Z,0.73
2023-01-11T12:00:29.560Z,4.73
2023-01-11T12:03:33.907Z,1.43
2023-01-11T12:06:35.851Z,0.83
2023-01-11T12:09:44.212Z,1.33
2023-01-11T12:12:54.074Z,1.17
2023-01-11T12:15:57.984Z,1.23
2023-01-11T12:18:59.988Z,1.77
2023-01-11T12:22:22.725Z,0.83
2023-01-11T12:25:26.227Z,1.13
2023-01-11T12:28:30.929Z,2.03
2023-01-11T12:31:57.944Z,4.27
2023-01-11T12:35:05.659Z,2.90
2023-01-11T12:38:32.020Z,1.43
2023-01-11T12:41:55.338Z,1.37
2023-01-11T12:44:57.272Z,0.90
2023-01-11T12:48:32.837Z,1.53
2023-01-11T12:51:55.927Z,3.03
2023-01-11T12:55:16.095Z,2.43
2023-01-11T12:58:23.925Z,0.80
2023-01-11T13:01:41.223Z,2.00
2023-01-11T13:05:25.132Z,0.60
2023-01-11T13:09:02.686Z,1.03
2023-01-11T13:12:08.243Z,1.43
2023-01-11T13:15:13.109Z,1.33
2023-01-11T13:18:23.890Z,0.80
2023-01-11T13:21:28.947Z,1.03
2023-01-11T13:24:32.205Z,1.50
2023-01-11T13:27:34.310Z,0.93
2023-01-11T13:30:36.786Z,1.20
2023-01-11T13:33:42.028Z,1.67
2023-01-11T13:36:49.034Z,1.90
2023-01-11T13:39:57.489Z,2.00
2023-01-11T13:43:22.509Z,1.23
2023-01-11T13:46:55.093Z,4.43
2023-01-11T13:50:23.844Z,2.23
2023-01-11T13:53:44.529Z,2.40
2023-01-11T13:57:42.221Z,1.30
2023-01-11T14:00:48.375Z,0.97
2023-01-11T14:03:54.472Z,1.13
2023-01-11T14:07:30.725Z,2.40
2023-01-11T14:10:57.991Z,2.27
2023-01-11T14:14:37.596Z,1.13
2023-01-11T14:18:09.302Z,2.97
2023-01-11T14:21:28.473Z,1.07
2023-01-11T14:24:33.533Z,1.30
2023-01-11T14:27:35.393Z,1.93
2023-01-11T14:31:08.407Z,3.17
2023-01-11T14:34:26.437Z,2.20
2023-01-11T14:37:37.597Z,5.10
2023-01-11T14:41:15.304Z,1.40
2023-01-11T14:44:55.625Z,2.07
2023-01-11T14:48:18.892Z,3.47
2023-01-11T14:51:30.593Z,4.90
2023-01-11T14:54:41.029Z,7.47
2023-01-11T14:58:22.040Z,5.83
2023-01-11T15:01:23.989Z,5.17
2023-01-11T15:04:26.004Z,3.23
2023-01-11T15:07:30.945Z,4.30
2023-01-11T15:10:35.273Z,3.53
2023-01-11T15:13:45.058Z,3.83
2023-01-11T15:17:11.595Z,3.90
2023-01-11T15:20:16.822Z,3.93
2023-01-11T15:23:19.192Z,3.00
2023-01-11T15:26:22.603Z,3.40
2023-01-11T15:29:30.568Z,2.93
2023-01-11T15:32:36.668Z,4.63
2023-01-11T15:35:38.742Z,3.53
2023-01-11T15:39:00.078Z,4.33
2023-01-11T15:42:04.952Z,3.50
2023-01-11T15:45:34.076Z,7.20
2023-01-11T15:49:10.407Z,16.90
2023-01-11T15:52:27.517Z,14.70
2023-01-11T15:55:48.537Z,14.43
2023-01-11T15:58:56.315Z,10.13
2023-01-11T16:02:19.231Z,13.13
2023-01-11T16:05:32.952Z,4.47
2023-01-11T16:09:05.359Z,4.00
2023-01-11T16:12:19.202Z,3.10
2023-01-11T16:15:33.419Z,3.80
2023-01-11T16:18:39.253Z,4.70
2023-01-11T16:21:42.604Z,3.73
2023-01-11T16:24:47.905Z,2.97
2023-01-11T16:27:55.911Z,5.43
2023-01-11T16:31:04.425Z,3.70
2023-01-11T16:34:07.734Z,4.93
2023-01-11T16:37:21.809Z,4.97
2023-01-11T16:40:29.736Z,6.80
2023-01-11T16:43:33.623Z,7.17
2023-01-11T16:46:47.604Z,7.00
2023-01-11T16:50:10.476Z,6.73
2023-01-11T16:53:13.771Z,5.73
2023-01-11T16:56:24.021Z,10.20
2023-01-11T16:59:31.239Z,7.67
2023-01-11T17:02:40.393Z,9.57
2023-01-11T17:05:42.582Z,8.53
2023-01-11T17:08:56.556Z,7.20
2023-01-11T17:11:58.469Z,6.70
2023-01-11T17:15:09.164Z,5.23
2023-01-11T17:18:11.834Z,5.50
2023-01-11T17:21:28.203Z,4.03
2023-01-11T17:24:31.141Z,4.53
2023-01-11T17:27:35.958Z,6.70
2023-01-11T17:30:37.936Z,7.67
2023-01-11T17:33:39.824Z,5.37
2023-01-11T17:36:42.940Z,4.73
2023-01-11T17:39:50.843Z,7.20
2023-01-11T17:43:21.284Z,6.70
2023-01-11T17:46:27.191Z,5.60
2023-01-11T17:49:29.204Z,3.93
2023-01-11T17:52:43.744Z,10.43
2023-01-11T17:56:05.026Z,5.60
2023-01-11T17:59:15.601Z,4.43
2023-01-11T18:02:18.180Z,4.03
2023-01-11T18:05:25.918Z,3.27
2023-01-11T18:08:27.975Z,5.63
2023-01-11T18:11:29.851Z,4.67
2023-01-11T18:14:39.770Z,6.13
2023-01-11T18:17:44.850Z,5.57
2023-01-11T18:20:47.315Z,5.67
2023-01-11T18:23:49.162Z,5.87
2023-01-11T18:27:06.954Z,4.60
2023-01-11T18:30:30.916Z,5.60
2023-01-11T18:33:34.695Z,4.60
2023-01-11T18:36:37.496Z,5.50
2023-01-11T18:39:41.166Z,3.33
2023-01-11T18:42:45.289Z,6.57
2023-01-11T18:45:47.778Z,3.87
2023-01-11T18:48:49.829Z,4.13
2023-01-11T18:51:52.351Z,4.10
2023-01-11T18:54:55.290Z,3.33
2023-01-11T18:57:58.530Z,4.07
2023-01-11T19:01:00.530Z,6.73
2023-01-11T19:04:02.496Z,3.93
2023-01-11T19:07:04.422Z,5.17
2023-01-11T19:10:07.277Z,2.50
2023-01-11T19:13:09.109Z,3.73
2023-01-11T19:16:11.395Z,3.43
2023-01-11T19:19:13.674Z,4.23
2023-01-11T19:22:15.966Z,2.97
2023-01-11T19:25:17.900Z,3.60
2023-01-11T19:28:19.848Z,6.20
2023-01-11T19:31:21.774Z,2.90
2023-01-11T19:34:24.447Z,4.57
2023-01-11T19:37:27.646Z,9.17
2023-01-11T19:40:29.676Z,3.50
2023-01-11T19:43:31.543Z,7.47
2023-01-11T19:46:33.943Z,5.03
2023-01-11T19:49:35.957Z,8.43
2023-01-11T19:52:37.967Z,3.87
2023-01-11T19:55:40.568Z,3.93
2023-01-11T19:58:42.487Z,7.23
2023-01-11T20:01:46.100Z,6.53
2023-01-11T20:04:48.146Z,4.13
2023-01-11T20:07:50.878Z,4.47
2023-01-11T20:10:52.820Z,6.70
2023-01-11T20:13:54.879Z,6.50
2023-01-11T20:16:57.166Z,9.27
2023-01-11T20:19:59.134Z,7.77
2023-01-11T20:23:00.935Z,9.47
2023-01-11T20:26:08.115Z,6.87
2023-01-11T20:29:09.980Z,4.33
2023-01-11T20:32:34.928Z,5.77
2023-01-11T20:35:34.789Z,3.70
2023-01-11T20:38:36.773Z,2.83
2023-01-11T20:41:47.892Z,3.30
2023-01-11T20:44:49.975Z,3.43
2023-01-11T20:47:51.847Z,3.67
2023-01-11T20:50:54.845Z,5.00
2023-01-11T20:53:56.897Z,6.77
2023-01-11T20:57:02.399Z,4.93
2023-01-11T21:00:05.045Z,4.47
2023-01-11T21:03:06.979Z,3.27
2023-01-11T21:06:09.798Z,4.00
2023-01-11T21:09:14.560Z,4.40
2023-01-11T21:12:18.664Z,1.93
2023-01-11T21:15:20.940Z,3.43
2023-01-11T21:18:22.835Z,3.03
2023-01-11T21:21:25.824Z,1.50
2023-01-11T21:24:28.219Z,2.80
2023-01-11T21:27:31.241Z,1.40
2023-01-11T21:30:33.368Z,2.30
2023-01-11T21:33:37.509Z,4.13
2023-01-11T21:36:40.373Z,3.17
2023-01-11T21:39:42.348Z,4.80
2023-01-11T21:42:44.508Z,5.63
2023-01-11T21:45:55.965Z,5.87
2023-01-11T21:48:57.889Z,8.87
2023-01-11T21:51:59.986Z,3.87
2023-01-11T21:55:01.932Z,4.30
2023-01-11T21:58:03.830Z,9.60
2023-01-11T22:01:14.740Z,6.37
2023-01-11T22:04:19.180Z,4.60
2023-01-11T22:07:20.991Z,3.67
2023-01-11T22:10:23.056Z,4.53
2023-01-11T22:13:26.332Z,4.43
2023-01-11T22:16:31.162Z,5.43
2023-01-11T22:19:33.092Z,6.20
2023-01-11T22:22:35.331Z,4.77
2023-01-11T22:25:37.216Z,3.73
2023-01-11T22:28:58.512Z,2.67
2023-01-11T22:32:02.511Z,3.13
2023-01-11T22:35:04.935Z,4.60
2023-01-11T22:38:07.373Z,3.47
2023-01-11T22:41:10.104Z,3.57
2023-01-11T22:44:12.542Z,4.10
2023-01-11T22:47:14.555Z,3.53
2023-01-11T22:50:16.571Z,2.30
2023-01-11T22:53:18.966Z,3.63
2023-01-11T22:56:25.110Z,4.70
2023-01-11T22:59:28.411Z,2.30
2023-01-11T23:02:30.436Z,1.73
2023-01-11T23:05:32.458Z,2.80
2023-01-11T23:08:40.926Z,3.97
2023-01-11T23:12:02.244Z,3.03
2023-01-11T23:15:04.946Z,3.27
2023-01-11T23:18:08.809Z,3.97
2023-01-11T23:21:10.640Z,6.13
2023-01-11T23:24:14.128Z,3.93
2023-01-11T23:27:16.048Z,2.90
2023-01-11T23:30:19.285Z,3.73
2023-01-11T23:33:21.197Z,2.43
2023-01-11T23:36:25.099Z,3.17
2023-01-11T23:39:26.971Z,3.43
2023-01-11T23:42:29.824Z,2.73
2023-01-11T23:45:31.725Z,3.83
2023-01-11T23:48:33.674Z,3.17
2023-01-11T23:51:36.431Z,4.37
2023-01-11T23:54:38.536Z,3.60
2023-01-11T23:58:01.009Z,3.77
